LGA weather

La Guardia Airport
New York, New York, United States

Public forecast

Using degrees Fahrenheit for public forecast. Weather courtesy of forecast.io.

METAR (pilot weather report)

Retrieved 2017/06/27 01:51 UTC (1 hour ago):

KLGA 270151Z 18007KT 10SM CLR 22/16 A2997 RMK AO2 SLP149 T02220161

TAF (pilot weather forecast)

Forecast is more than 12 hours old.

Retrieved 2017/06/26 00:39 UTC (1 day ago):

TAF KLGA 262336Z 2700/2724 18012KT P6SM FEW070 FM270200 21008KT P6SM SKC FM271100 17007KT P6SM BKN070 FM271800 22012G20KT P6SM SCT060 BKN200 FM272300 26012G20KT P6SM FEW060 SCT200